sensor_id;sensor_type;location;lat;lon;timestamp;P1;durP1;ratioP1;P2;durP2;ratioP2
3099;SDS011;1560;52.746;13.474;2022-11-20T00:01:21;38.55;;;21.05;;
3099;SDS011;1560;52.746;13.474;2022-11-20T00:03:51;29.25;;;17.25;;
3099;SDS011;1560;52.746;13.474;2022-11-20T00:08:59;32.45;;;16.40;;
3099;SDS011;1560;52.746;13.474;2022-11-20T00:11:29;30.60;;;14.87;;
3099;SDS011;1560;52.746;13.474;2022-11-20T00:13:59;24.75;;;15.23;;
3099;SDS011;1560;52.746;13.474;2022-11-20T00:19:06;29.67;;;15.15;;
3099;SDS011;1560;52.746;13.474;2022-11-20T00:21:35;27.30;;;14.78;;
3099;SDS011;1560;52.746;13.474;2022-11-20T00:24:08;25.62;;;14.20;;
3099;SDS011;1560;52.746;13.474;2022-11-20T00:26:36;27.60;;;16.48;;
3099;SDS011;1560;52.746;13.474;2022-11-20T00:29:14;30.85;;;15.30;;
3099;SDS011;1560;52.746;13.474;2022-11-20T00:31:43;28.47;;;13.75;;
3099;SDS011;1560;52.746;13.474;2022-11-20T00:34:12;29.70;;;16.45;;
3099;SDS011;1560;52.746;13.474;2022-11-20T00:36:41;27.32;;;15.25;;
3099;SDS011;1560;52.746;13.474;2022-11-20T00:39:10;30.10;;;17.10;;
3099;SDS011;1560;52.746;13.474;2022-11-20T00:41:39;29.10;;;16.85;;
3099;SDS011;1560;52.746;13.474;2022-11-20T00:44:16;33.90;;;16.85;;
3099;SDS011;1560;52.746;13.474;2022-11-20T00:46:45;33.40;;;19.80;;
3099;SDS011;1560;52.746;13.474;2022-11-20T00:49:14;34.95;;;19.10;;
3099;SDS011;1560;52.746;13.474;2022-11-20T00:51:43;53.40;;;25.75;;
3099;SDS011;1560;52.746;13.474;2022-11-20T00:54:21;41.98;;;23.30;;
3099;SDS011;1560;52.746;13.474;2022-11-20T00:56:50;54.13;;;26.82;;
3099;SDS011;1560;52.746;13.474;2022-11-20T01:01:57;63.60;;;28.45;;
3099;SDS011;1560;52.746;13.474;2022-11-20T01:04:27;49.58;;;25.70;;
3099;SDS011;1560;52.746;13.474;2022-11-20T01:06:56;47.00;;;27.15;;
3099;SDS011;1560;52.746;13.474;2022-11-20T01:09:25;56.33;;;29.82;;
3099;SDS011;1560;52.746;13.474;2022-11-20T01:11:54;44.53;;;23.60;;
3099;SDS011;1560;52.746;13.474;2022-11-20T01:14:23;39.88;;;21.73;;
3099;SDS011;1560;52.746;13.474;2022-11-20T01:16:52;42.00;;;20.85;;
3099;SDS011;1560;52.746;13.474;2022-11-20T01:21:57;32.50;;;19.23;;
3099;SDS011;1560;52.746;13.474;2022-11-20T01:24:26;37.45;;;21.35;;
3099;SDS011;1560;52.746;13.474;2022-11-20T01:26:55;38.73;;;19.87;;
3099;SDS011;1560;52.746;13.474;2022-11-20T01:29:24;40.45;;;19.50;;
3099;SDS011;1560;52.746;13.474;2022-11-20T01:31:53;36.50;;;20.12;;
3099;SDS011;1560;52.746;13.474;2022-11-20T01:36:58;31.60;;;17.75;;
3099;SDS011;1560;52.746;13.474;2022-11-20T01:39:27;30.92;;;18.60;;
3099;SDS011;1560;52.746;13.474;2022-11-20T01:42:05;40.48;;;20.25;;
3099;SDS011;1560;52.746;13.474;2022-11-20T01:44:53;35.85;;;19.62;;
3099;SDS011;1560;52.746;13.474;2022-11-20T01:50:04;36.77;;;18.25;;
3099;SDS011;1560;52.746;13.474;2022-11-20T01:52:36;33.30;;;16.50;;
3099;SDS011;1560;52.746;13.474;2022-11-20T01:55:08;31.20;;;16.30;;
3099;SDS011;1560;52.746;13.474;2022-11-20T01:57:40;30.15;;;14.73;;
3099;SDS011;1560;52.746;13.474;2022-11-20T02:02:48;36.28;;;16.00;;
3099;SDS011;1560;52.746;13.474;2022-11-20T02:05:20;29.20;;;14.43;;
3099;SDS011;1560;52.746;13.474;2022-11-20T02:07:51;30.85;;;16.95;;
3099;SDS011;1560;52.746;13.474;2022-11-20T02:10:22;35.90;;;15.85;;
3099;SDS011;1560;52.746;13.474;2022-11-20T02:12:51;33.23;;;17.70;;
3099;SDS011;1560;52.746;13.474;2022-11-20T02:15:38;31.37;;;15.55;;
3099;SDS011;1560;52.746;13.474;2022-11-20T02:20:45;30.65;;;16.52;;
3099;SDS011;1560;52.746;13.474;2022-11-20T02:23:16;27.93;;;14.33;;
3099;SDS011;1560;52.746;13.474;2022-11-20T02:25:55;30.57;;;14.35;;
3099;SDS011;1560;52.746;13.474;2022-11-20T02:28:25;27.35;;;16.45;;
3099;SDS011;1560;52.746;13.474;2022-11-20T02:31:03;27.45;;;15.00;;
3099;SDS011;1560;52.746;13.474;2022-11-20T02:33:32;30.95;;;15.25;;
3099;SDS011;1560;52.746;13.474;2022-11-20T02:38:37;27.95;;;15.25;;
3099;SDS011;1560;52.746;13.474;2022-11-20T02:41:06;30.32;;;16.55;;
3099;SDS011;1560;52.746;13.474;2022-11-20T02:43:36;27.70;;;14.55;;
3099;SDS011;1560;52.746;13.474;2022-11-20T02:46:06;34.20;;;16.07;;
3099;SDS011;1560;52.746;13.474;2022-11-20T02:51:12;33.73;;;16.97;;
3099;SDS011;1560;52.746;13.474;2022-11-20T02:53:41;33.45;;;16.87;;
3099;SDS011;1560;52.746;13.474;2022-11-20T02:58:47;43.85;;;18.10;;
3099;SDS011;1560;52.746;13.474;2022-11-20T03:01:15;29.82;;;15.08;;
3099;SDS011;1560;52.746;13.474;2022-11-20T03:03:44;25.37;;;15.93;;
3099;SDS011;1560;52.746;13.474;2022-11-20T03:08:51;28.10;;;15.60;;
3099;SDS011;1560;52.746;13.474;2022-11-20T03:11:20;30.20;;;17.55;;
3099;SDS011;1560;52.746;13.474;2022-11-20T03:13:49;29.77;;;16.90;;
3099;SDS011;1560;52.746;13.474;2022-11-20T03:16:19;34.58;;;18.90;;
3099;SDS011;1560;52.746;13.474;2022-11-20T03:18:48;27.62;;;17.95;;
3099;SDS011;1560;52.746;13.474;2022-11-20T03:21:19;35.17;;;16.73;;
3099;SDS011;1560;52.746;13.474;2022-11-20T03:23:48;32.75;;;17.15;;
3099;SDS011;1560;52.746;13.474;2022-11-20T03:26:18;33.65;;;16.15;;
3099;SDS011;1560;52.746;13.474;2022-11-20T03:28:49;31.50;;;17.00;;
3099;SDS011;1560;52.746;13.474;2022-11-20T03:33:56;41.00;;;18.82;;
3099;SDS011;1560;52.746;13.474;2022-11-20T03:39:02;41.28;;;18.90;;
3099;SDS011;1560;52.746;13.474;2022-11-20T03:41:34;35.10;;;17.40;;
3099;SDS011;1560;52.746;13.474;2022-11-20T03:44:06;47.40;;;23.40;;
3099;SDS011;1560;52.746;13.474;2022-11-20T03:49:11;35.13;;;19.73;;
3099;SDS011;1560;52.746;13.474;2022-11-20T03:51:40;33.53;;;18.40;;
3099;SDS011;1560;52.746;13.474;2022-11-20T03:56:46;32.93;;;16.73;;
3099;SDS011;1560;52.746;13.474;2022-11-20T03:59:15;37.33;;;18.10;;
3099;SDS011;1560;52.746;13.474;2022-11-20T04:01:52;33.55;;;17.95;;
3099;SDS011;1560;52.746;13.474;2022-11-20T04:06:58;29.23;;;16.45;;
3099;SDS011;1560;52.746;13.474;2022-11-20T04:09:27;33.90;;;16.05;;
3099;SDS011;1560;52.746;13.474;2022-11-20T04:12:04;29.85;;;17.40;;
3099;SDS011;1560;52.746;13.474;2022-11-20T04:14:36;32.63;;;17.95;;
3099;SDS011;1560;52.746;13.474;2022-11-20T04:17:05;33.50;;;19.45;;
3099;SDS011;1560;52.746;13.474;2022-11-20T04:19:34;34.45;;;18.35;;
3099;SDS011;1560;52.746;13.474;2022-11-20T04:22:03;29.30;;;16.73;;
3099;SDS011;1560;52.746;13.474;2022-11-20T04:27:08;37.23;;;17.90;;
3099;SDS011;1560;52.746;13.474;2022-11-20T04:29:39;33.35;;;16.85;;
3099;SDS011;1560;52.746;13.474;2022-11-20T04:32:08;31.85;;;17.27;;
3099;SDS011;1560;52.746;13.474;2022-11-20T04:34:37;29.95;;;16.95;;
3099;SDS011;1560;52.746;13.474;2022-11-20T04:39:42;34.05;;;17.37;;
3099;SDS011;1560;52.746;13.474;2022-11-20T04:42:11;31.50;;;15.90;;
3099;SDS011;1560;52.746;13.474;2022-11-20T04:44:49;29.55;;;16.60;;
3099;SDS011;1560;52.746;13.474;2022-11-20T04:47:18;34.30;;;17.37;;
3099;SDS011;1560;52.746;13.474;2022-11-20T04:49:55;32.15;;;16.60;;
3099;SDS011;1560;52.746;13.474;2022-11-20T04:52:25;27.30;;;16.48;;
3099;SDS011;1560;52.746;13.474;2022-11-20T04:54:54;28.17;;;16.57;;
3099;SDS011;1560;52.746;13.474;2022-11-20T04:59:59;32.85;;;16.48;;
3099;SDS011;1560;52.746;13.474;2022-11-20T05:02:28;31.45;;;16.32;;
3099;SDS011;1560;52.746;13.474;2022-11-20T05:04:58;33.18;;;18.65;;
3099;SDS011;1560;52.746;13.474;2022-11-20T05:07:36;28.52;;;16.15;;
3099;SDS011;1560;52.746;13.474;2022-11-20T05:10:06;30.97;;;15.05;;
3099;SDS011;1560;52.746;13.474;2022-11-20T05:15:13;30.43;;;16.80;;
3099;SDS011;1560;52.746;13.474;2022-11-20T05:17:46;28.92;;;16.75;;
3099;SDS011;1560;52.746;13.474;2022-11-20T05:20:16;35.20;;;18.67;;
3099;SDS011;1560;52.746;13.474;2022-11-20T05:22:56;28.02;;;15.18;;
3099;SDS011;1560;52.746;13.474;2022-11-20T05:28:01;28.50;;;16.05;;
3099;SDS011;1560;52.746;13.474;2022-11-20T05:30:31;34.15;;;20.20;;
3099;SDS011;1560;52.746;13.474;2022-11-20T05:33:09;29.65;;;17.05;;
3099;SDS011;1560;52.746;13.474;2022-11-20T05:35:38;29.70;;;18.05;;
3099;SDS011;1560;52.746;13.474;2022-11-20T05:38:08;29.30;;;17.40;;
3099;SDS011;1560;52.746;13.474;2022-11-20T05:40:37;32.65;;;17.07;;
3099;SDS011;1560;52.746;13.474;2022-11-20T05:43:06;34.55;;;18.60;;
3099;SDS011;1560;52.746;13.474;2022-11-20T05:45:34;35.28;;;16.80;;
3099;SDS011;1560;52.746;13.474;2022-11-20T05:50:40;33.15;;;17.90;;
3099;SDS011;1560;52.746;13.474;2022-11-20T05:53:09;40.60;;;19.20;;
3099;SDS011;1560;52.746;13.474;2022-11-20T05:55:38;31.42;;;16.90;;
3099;SDS011;1560;52.746;13.474;2022-11-20T05:58:07;34.65;;;19.12;;
3099;SDS011;1560;52.746;13.474;2022-11-20T06:00:36;35.45;;;17.70;;
3099;SDS011;1560;52.746;13.474;2022-11-20T06:03:13;34.13;;;17.98;;
3099;SDS011;1560;52.746;13.474;2022-11-20T06:05:42;34.00;;;18.62;;
3099;SDS011;1560;52.746;13.474;2022-11-20T06:08:11;32.63;;;19.05;;
3099;SDS011;1560;52.746;13.474;2022-11-20T06:10:40;37.23;;;17.55;;
3099;SDS011;1560;52.746;13.474;2022-11-20T06:13:11;36.35;;;21.30;;
3099;SDS011;1560;52.746;13.474;2022-11-20T06:15:41;39.05;;;18.32;;
3099;SDS011;1560;52.746;13.474;2022-11-20T06:18:12;39.95;;;20.00;;
3099;SDS011;1560;52.746;13.474;2022-11-20T06:20:43;33.33;;;17.77;;
3099;SDS011;1560;52.746;13.474;2022-11-20T06:23:13;29.12;;;15.68;;
3099;SDS011;1560;52.746;13.474;2022-11-20T06:38:44;29.50;;;16.10;;
3099;SDS011;1560;52.746;13.474;2022-11-20T06:41:13;29.48;;;17.82;;
3099;SDS011;1560;52.746;13.474;2022-11-20T06:43:44;32.42;;;17.65;;
3099;SDS011;1560;52.746;13.474;2022-11-20T06:46:13;33.23;;;18.12;;
3099;SDS011;1560;52.746;13.474;2022-11-20T06:48:51;29.57;;;17.20;;
3099;SDS011;1560;52.746;13.474;2022-11-20T06:51:21;32.83;;;18.07;;
3099;SDS011;1560;52.746;13.474;2022-11-20T06:53:51;30.55;;;17.73;;
3099;SDS011;1560;52.746;13.474;2022-11-20T06:59:39;26.35;;;15.90;;
3099;SDS011;1560;52.746;13.474;2022-11-20T07:02:12;29.57;;;15.78;;
3099;SDS011;1560;52.746;13.474;2022-11-20T07:07:18;38.67;;;17.35;;
3099;SDS011;1560;52.746;13.474;2022-11-20T07:09:47;31.95;;;16.73;;
3099;SDS011;1560;52.746;13.474;2022-11-20T07:12:16;36.73;;;17.75;;
3099;SDS011;1560;52.746;13.474;2022-11-20T07:17:21;34.60;;;19.35;;
3099;SDS011;1560;52.746;13.474;2022-11-20T07:19:50;30.57;;;17.52;;
3099;SDS011;1560;52.746;13.474;2022-11-20T07:24:56;39.15;;;18.82;;
3099;SDS011;1560;52.746;13.474;2022-11-20T07:27:25;37.88;;;19.75;;
3099;SDS011;1560;52.746;13.474;2022-11-20T07:29:56;34.03;;;17.40;;
3099;SDS011;1560;52.746;13.474;2022-11-20T07:32:37;29.00;;;17.57;;
3099;SDS011;1560;52.746;13.474;2022-11-20T07:37:45;34.53;;;17.92;;
3099;SDS011;1560;52.746;13.474;2022-11-20T07:40:15;35.40;;;18.27;;
3099;SDS011;1560;52.746;13.474;2022-11-20T07:42:49;31.85;;;17.40;;
3099;SDS011;1560;52.746;13.474;2022-11-20T07:45:19;38.50;;;19.17;;
3099;SDS011;1560;52.746;13.474;2022-11-20T07:47:50;34.70;;;18.00;;
3099;SDS011;1560;52.746;13.474;2022-11-20T07:50:19;40.78;;;19.25;;
3099;SDS011;1560;52.746;13.474;2022-11-20T07:53:00;28.30;;;16.80;;
3099;SDS011;1560;52.746;13.474;2022-11-20T07:55:30;37.10;;;19.15;;
3099;SDS011;1560;52.746;13.474;2022-11-20T08:00:36;30.52;;;17.75;;
3099;SDS011;1560;52.746;13.474;2022-11-20T08:05:41;34.05;;;19.27;;
3099;SDS011;1560;52.746;13.474;2022-11-20T08:08:11;37.10;;;17.50;;
3099;SDS011;1560;52.746;13.474;2022-11-20T08:10:40;33.98;;;19.02;;
3099;SDS011;1560;52.746;13.474;2022-11-20T08:13:09;31.57;;;17.75;;
3099;SDS011;1560;52.746;13.474;2022-11-20T08:15:57;33.73;;;18.52;;
3099;SDS011;1560;52.746;13.474;2022-11-20T08:21:11;31.10;;;17.35;;
3099;SDS011;1560;52.746;13.474;2022-11-20T08:23:40;32.28;;;18.77;;
3099;SDS011;1560;52.746;13.474;2022-11-20T08:26:09;31.37;;;18.40;;
3099;SDS011;1560;52.746;13.474;2022-11-20T08:28:38;32.13;;;18.52;;
3099;SDS011;1560;52.746;13.474;2022-11-20T08:33:43;33.15;;;17.90;;
3099;SDS011;1560;52.746;13.474;2022-11-20T08:36:12;33.00;;;18.37;;
3099;SDS011;1560;52.746;13.474;2022-11-20T08:38:46;34.90;;;17.82;;
3099;SDS011;1560;52.746;13.474;2022-11-20T08:43:52;32.20;;;17.37;;
3099;SDS011;1560;52.746;13.474;2022-11-20T08:46:31;33.80;;;17.50;;
3099;SDS011;1560;52.746;13.474;2022-11-20T08:49:03;34.90;;;17.87;;
3099;SDS011;1560;52.746;13.474;2022-11-20T08:51:32;30.40;;;17.25;;
3099;SDS011;1560;52.746;13.474;2022-11-20T08:56:40;33.63;;;17.70;;
3099;SDS011;1560;52.746;13.474;2022-11-20T08:59:09;30.37;;;19.25;;
3099;SDS011;1560;52.746;13.474;2022-11-20T09:01:47;35.65;;;19.45;;
3099;SDS011;1560;52.746;13.474;2022-11-20T09:04:16;33.02;;;18.12;;
3099;SDS011;1560;52.746;13.474;2022-11-20T09:06:45;39.30;;;19.57;;
3099;SDS011;1560;52.746;13.474;2022-11-20T09:09:15;30.20;;;18.35;;
3099;SDS011;1560;52.746;13.474;2022-11-20T09:11:45;30.62;;;17.40;;
3099;SDS011;1560;52.746;13.474;2022-11-20T09:14:13;34.18;;;18.67;;
3099;SDS011;1560;52.746;13.474;2022-11-20T09:19:21;36.00;;;19.15;;
3099;SDS011;1560;52.746;13.474;2022-11-20T09:21:51;33.67;;;16.70;;
3099;SDS011;1560;52.746;13.474;2022-11-20T09:26:57;37.33;;;19.55;;
3099;SDS011;1560;52.746;13.474;2022-11-20T09:29:27;37.50;;;19.70;;
3099;SDS011;1560;52.746;13.474;2022-11-20T09:32:05;33.92;;;19.85;;
3099;SDS011;1560;52.746;13.474;2022-11-20T09:34:35;31.77;;;19.10;;
3099;SDS011;1560;52.746;13.474;2022-11-20T09:37:03;38.88;;;19.10;;
3099;SDS011;1560;52.746;13.474;2022-11-20T09:39:33;31.77;;;17.37;;
3099;SDS011;1560;52.746;13.474;2022-11-20T09:42:06;38.28;;;19.45;;
3099;SDS011;1560;52.746;13.474;2022-11-20T09:45:16;40.83;;;19.42;;
3099;SDS011;1560;52.746;13.474;2022-11-20T09:47:53;37.50;;;18.80;;
3099;SDS011;1560;52.746;13.474;2022-11-20T09:50:41;38.98;;;18.73;;
3099;SDS011;1560;52.746;13.474;2022-11-20T09:53:19;33.92;;;19.50;;
3099;SDS011;1560;52.746;13.474;2022-11-20T09:55:51;33.38;;;19.17;;
3099;SDS011;1560;52.746;13.474;2022-11-20T10:01:03;30.23;;;18.00;;
3099;SDS011;1560;52.746;13.474;2022-11-20T10:16:46;29.57;;;15.30;;
3099;SDS011;1560;52.746;13.474;2022-11-20T10:19:28;28.07;;;16.85;;
3099;SDS011;1560;52.746;13.474;2022-11-20T10:22:19;29.72;;;16.57;;
3099;SDS011;1560;52.746;13.474;2022-11-20T10:24:55;33.65;;;17.37;;
3099;SDS011;1560;52.746;13.474;2022-11-20T10:27:39;35.83;;;19.70;;
3099;SDS011;1560;52.746;13.474;2022-11-20T10:30:13;36.03;;;17.95;;
3099;SDS011;1560;52.746;13.474;2022-11-20T10:35:27;32.28;;;18.20;;
3099;SDS011;1560;52.746;13.474;2022-11-20T10:38:02;34.35;;;18.00;;
3099;SDS011;1560;52.746;13.474;2022-11-20T10:40:37;32.38;;;16.80;;
3099;SDS011;1560;52.746;13.474;2022-11-20T10:43:10;34.73;;;18.77;;
3099;SDS011;1560;52.746;13.474;2022-11-20T10:45:50;30.20;;;18.25;;
3099;SDS011;1560;52.746;13.474;2022-11-20T10:48:23;32.60;;;18.12;;
3099;SDS011;1560;52.746;13.474;2022-11-20T10:54:00;31.25;;;17.62;;
3099;SDS011;1560;52.746;13.474;2022-11-20T10:59:29;28.52;;;15.70;;
3099;SDS011;1560;52.746;13.474;2022-11-20T11:02:18;33.50;;;18.75;;
3099;SDS011;1560;52.746;13.474;2022-11-20T11:04:59;33.88;;;17.80;;
3099;SDS011;1560;52.746;13.474;2022-11-20T11:07:36;30.20;;;16.52;;
3099;SDS011;1560;52.746;13.474;2022-11-20T11:10:14;34.65;;;17.82;;
3099;SDS011;1560;52.746;13.474;2022-11-20T11:12:52;35.60;;;20.77;;
3099;SDS011;1560;52.746;13.474;2022-11-20T11:18:04;36.38;;;17.50;;
3099;SDS011;1560;52.746;13.474;2022-11-20T11:20:36;33.48;;;17.85;;
3099;SDS011;1560;52.746;13.474;2022-11-20T11:23:22;27.95;;;17.67;;
3099;SDS011;1560;52.746;13.474;2022-11-20T11:25:56;33.05;;;17.15;;
3099;SDS011;1560;52.746;13.474;2022-11-20T11:31:06;32.80;;;17.30;;
3099;SDS011;1560;52.746;13.474;2022-11-20T11:33:36;31.42;;;16.95;;
3099;SDS011;1560;52.746;13.474;2022-11-20T11:36:15;35.38;;;16.70;;
3099;SDS011;1560;52.746;13.474;2022-11-20T11:38:44;28.02;;;16.77;;
3099;SDS011;1560;52.746;13.474;2022-11-20T11:43:51;23.65;;;15.28;;
3099;SDS011;1560;52.746;13.474;2022-11-20T11:46:40;32.10;;;17.37;;
3099;SDS011;1560;52.746;13.474;2022-11-20T12:13:24;22.77;;;14.85;;
3099;SDS011;1560;52.746;13.474;2022-11-20T13:12:59;30.45;;;15.58;;
3099;SDS011;1560;52.746;13.474;2022-11-20T13:18:15;21.77;;;15.32;;
3099;SDS011;1560;52.746;13.474;2022-11-20T13:20:45;34.33;;;17.10;;
3099;SDS011;1560;52.746;13.474;2022-11-20T13:26:05;27.20;;;16.45;;
3099;SDS011;1560;52.746;13.474;2022-11-20T13:28:43;33.70;;;17.65;;
3099;SDS011;1560;52.746;13.474;2022-11-20T13:34:23;29.42;;;16.62;;
3099;SDS011;1560;52.746;13.474;2022-11-20T13:36:55;32.38;;;16.40;;
3099;SDS011;1560;52.746;13.474;2022-11-20T13:39:27;25.88;;;14.83;;
3099;SDS011;1560;52.746;13.474;2022-11-20T13:42:20;30.37;;;15.72;;
3099;SDS011;1560;52.746;13.474;2022-11-20T13:44:54;31.42;;;16.00;;
3099;SDS011;1560;52.746;13.474;2022-11-20T13:47:25;26.15;;;15.95;;
3099;SDS011;1560;52.746;13.474;2022-11-20T13:50:04;30.15;;;17.62;;
3099;SDS011;1560;52.746;13.474;2022-11-20T13:52:38;27.25;;;16.48;;
3099;SDS011;1560;52.746;13.474;2022-11-20T13:55:14;30.77;;;17.12;;
3099;SDS011;1560;52.746;13.474;2022-11-20T14:00:46;27.50;;;16.25;;
3099;SDS011;1560;52.746;13.474;2022-11-20T14:05:54;27.30;;;14.43;;
3099;SDS011;1560;52.746;13.474;2022-11-20T14:28:24;30.75;;;16.82;;
3099;SDS011;1560;52.746;13.474;2022-11-20T14:31:16;29.85;;;19.70;;
3099;SDS011;1560;52.746;13.474;2022-11-20T14:33:57;27.32;;;17.17;;
3099;SDS011;1560;52.746;13.474;2022-11-20T14:37:02;26.50;;;17.27;;
3099;SDS011;1560;52.746;13.474;2022-11-20T14:57:21;28.87;;;16.75;;
3099;SDS011;1560;52.746;13.474;2022-11-20T15:00:07;35.88;;;16.97;;
3099;SDS011;1560;52.746;13.474;2022-11-20T15:13:54;31.73;;;18.75;;
3099;SDS011;1560;52.746;13.474;2022-11-20T15:35:16;32.15;;;18.37;;
3099;SDS011;1560;52.746;13.474;2022-11-20T15:37:48;37.95;;;20.57;;
3099;SDS011;1560;52.746;13.474;2022-11-20T15:43:00;30.80;;;17.05;;
3099;SDS011;1560;52.746;13.474;2022-11-20T15:48:08;31.52;;;17.07;;
3099;SDS011;1560;52.746;13.474;2022-11-20T15:50:41;31.50;;;16.40;;
3099;SDS011;1560;52.746;13.474;2022-11-20T15:55:47;31.37;;;16.57;;
3099;SDS011;1560;52.746;13.474;2022-11-20T15:58:17;32.98;;;17.65;;
3099;SDS011;1560;52.746;13.474;2022-11-20T16:00:54;43.52;;;23.92;;
3099;SDS011;1560;52.746;13.474;2022-11-20T16:06:00;36.77;;;19.80;;
3099;SDS011;1560;52.746;13.474;2022-11-20T16:08:30;35.00;;;19.20;;
3099;SDS011;1560;52.746;13.474;2022-11-20T16:10:58;28.17;;;16.23;;
3099;SDS011;1560;52.746;13.474;2022-11-20T16:13:36;27.48;;;14.90;;
3099;SDS011;1560;52.746;13.474;2022-11-20T16:18:59;25.35;;;15.30;;
3099;SDS011;1560;52.746;13.474;2022-11-20T16:21:29;25.17;;;15.25;;
3099;SDS011;1560;52.746;13.474;2022-11-20T16:24:07;25.48;;;14.35;;
3099;SDS011;1560;52.746;13.474;2022-11-20T16:26:39;30.25;;;16.60;;
3099;SDS011;1560;52.746;13.474;2022-11-20T16:29:08;27.13;;;16.02;;
3099;SDS011;1560;52.746;13.474;2022-11-20T16:31:37;31.07;;;16.67;;
3099;SDS011;1560;52.746;13.474;2022-11-20T16:34:06;28.00;;;17.45;;
3099;SDS011;1560;52.746;13.474;2022-11-20T16:39:12;25.15;;;14.38;;
3099;SDS011;1560;52.746;13.474;2022-11-20T16:41:41;26.52;;;14.75;;
3099;SDS011;1560;52.746;13.474;2022-11-20T16:44:10;29.42;;;15.40;;
3099;SDS011;1560;52.746;13.474;2022-11-20T16:49:17;24.43;;;14.65;;
3099;SDS011;1560;52.746;13.474;2022-11-20T16:51:46;25.32;;;13.83;;
3099;SDS011;1560;52.746;13.474;2022-11-20T16:54:15;27.58;;;15.83;;
3099;SDS011;1560;52.746;13.474;2022-11-20T16:59:20;28.47;;;14.75;;
3099;SDS011;1560;52.746;13.474;2022-11-20T17:01:49;24.37;;;14.30;;
3099;SDS011;1560;52.746;13.474;2022-11-20T17:04:18;29.50;;;14.95;;
3099;SDS011;1560;52.746;13.474;2022-11-20T17:06:47;23.20;;;14.25;;
3099;SDS011;1560;52.746;13.474;2022-11-20T17:09:16;26.52;;;14.50;;
3099;SDS011;1560;52.746;13.474;2022-11-20T17:14:21;25.68;;;14.15;;
3099;SDS011;1560;52.746;13.474;2022-11-20T17:16:50;19.02;;;13.10;;
3099;SDS011;1560;52.746;13.474;2022-11-20T17:19:19;30.75;;;14.30;;
3099;SDS011;1560;52.746;13.474;2022-11-20T17:21:56;24.00;;;14.13;;
3099;SDS011;1560;52.746;13.474;2022-11-20T17:24:34;25.23;;;14.65;;
3099;SDS011;1560;52.746;13.474;2022-11-20T17:29:39;24.85;;;14.60;;
3099;SDS011;1560;52.746;13.474;2022-11-20T17:32:09;24.85;;;14.50;;
3099;SDS011;1560;52.746;13.474;2022-11-20T17:34:46;24.18;;;14.05;;
3099;SDS011;1560;52.746;13.474;2022-11-20T17:37:15;22.55;;;13.70;;
3099;SDS011;1560;52.746;13.474;2022-11-20T17:39:53;25.65;;;15.03;;
3099;SDS011;1560;52.746;13.474;2022-11-20T17:42:22;24.20;;;13.85;;
3099;SDS011;1560;52.746;13.474;2022-11-20T17:44:55;26.37;;;15.23;;
3099;SDS011;1560;52.746;13.474;2022-11-20T17:50:01;30.23;;;16.15;;
3099;SDS011;1560;52.746;13.474;2022-11-20T17:55:07;27.25;;;15.48;;
3099;SDS011;1560;52.746;13.474;2022-11-20T17:57:36;25.08;;;14.28;;
3099;SDS011;1560;52.746;13.474;2022-11-20T18:00:22;26.52;;;15.18;;
3099;SDS011;1560;52.746;13.474;2022-11-20T18:02:51;27.87;;;14.00;;
3099;SDS011;1560;52.746;13.474;2022-11-20T18:05:21;21.65;;;14.15;;
3099;SDS011;1560;52.746;13.474;2022-11-20T18:07:51;29.52;;;15.70;;
3099;SDS011;1560;52.746;13.474;2022-11-20T18:10:20;25.82;;;15.18;;
3099;SDS011;1560;52.746;13.474;2022-11-20T18:12:49;27.90;;;15.18;;
3099;SDS011;1560;52.746;13.474;2022-11-20T18:15:19;20.32;;;13.20;;
3099;SDS011;1560;52.746;13.474;2022-11-20T18:17:49;28.10;;;14.90;;
3099;SDS011;1560;52.746;13.474;2022-11-20T18:20:18;20.52;;;12.63;;
3099;SDS011;1560;52.746;13.474;2022-11-20T18:22:47;23.90;;;14.10;;
3099;SDS011;1560;52.746;13.474;2022-11-20T18:27:53;23.12;;;14.15;;
3099;SDS011;1560;52.746;13.474;2022-11-20T18:30:22;21.97;;;13.53;;
3099;SDS011;1560;52.746;13.474;2022-11-20T18:33:00;25.60;;;13.65;;
3099;SDS011;1560;52.746;13.474;2022-11-20T18:38:07;25.52;;;13.75;;
3099;SDS011;1560;52.746;13.474;2022-11-20T18:40:37;25.60;;;15.25;;
3099;SDS011;1560;52.746;13.474;2022-11-20T18:43:09;22.52;;;13.90;;
3099;SDS011;1560;52.746;13.474;2022-11-20T18:46:00;23.83;;;13.85;;
3099;SDS011;1560;52.746;13.474;2022-11-20T18:51:07;27.13;;;13.80;;
3099;SDS011;1560;52.746;13.474;2022-11-20T18:53:37;26.65;;;16.02;;
3099;SDS011;1560;52.746;13.474;2022-11-20T18:56:07;24.57;;;16.32;;
3099;SDS011;1560;52.746;13.474;2022-11-20T19:01:12;27.87;;;15.72;;
3099;SDS011;1560;52.746;13.474;2022-11-20T19:03:41;23.20;;;14.28;;
3099;SDS011;1560;52.746;13.474;2022-11-20T19:08:48;24.05;;;13.48;;
3099;SDS011;1560;52.746;13.474;2022-11-20T19:11:18;24.00;;;13.62;;
3099;SDS011;1560;52.746;13.474;2022-11-20T19:13:48;26.55;;;14.85;;
3099;SDS011;1560;52.746;13.474;2022-11-20T19:16:19;24.30;;;14.05;;
3099;SDS011;1560;52.746;13.474;2022-11-20T19:19:19;24.60;;;14.13;;
3099;SDS011;1560;52.746;13.474;2022-11-20T19:21:53;27.73;;;15.00;;
3099;SDS011;1560;52.746;13.474;2022-11-20T19:27:16;24.23;;;14.15;;
3099;SDS011;1560;52.746;13.474;2022-11-20T19:29:45;27.62;;;14.53;;
3099;SDS011;1560;52.746;13.474;2022-11-20T19:32:33;25.40;;;14.20;;
3099;SDS011;1560;52.746;13.474;2022-11-20T19:37:42;28.73;;;15.13;;
3099;SDS011;1560;52.746;13.474;2022-11-20T19:40:12;22.65;;;14.58;;
3099;SDS011;1560;52.746;13.474;2022-11-20T19:42:41;27.25;;;16.30;;
3099;SDS011;1560;52.746;13.474;2022-11-20T19:47:46;26.93;;;14.60;;
3099;SDS011;1560;52.746;13.474;2022-11-20T19:50:15;27.02;;;14.83;;
3099;SDS011;1560;52.746;13.474;2022-11-20T19:52:54;27.30;;;13.68;;
3099;SDS011;1560;52.746;13.474;2022-11-20T19:55:24;28.85;;;16.15;;
3099;SDS011;1560;52.746;13.474;2022-11-20T20:00:42;19.90;;;14.30;;
3099;SDS011;1560;52.746;13.474;2022-11-20T20:05:50;28.23;;;15.25;;
3099;SDS011;1560;52.746;13.474;2022-11-20T20:08:19;27.10;;;16.48;;
3099;SDS011;1560;52.746;13.474;2022-11-20T20:10:48;26.30;;;16.32;;
3099;SDS011;1560;52.746;13.474;2022-11-20T20:13:17;26.05;;;14.55;;
3099;SDS011;1560;52.746;13.474;2022-11-20T20:18:22;30.82;;;14.93;;
3099;SDS011;1560;52.746;13.474;2022-11-20T20:20:51;25.85;;;15.75;;
3099;SDS011;1560;52.746;13.474;2022-11-20T20:23:20;28.17;;;15.80;;
3099;SDS011;1560;52.746;13.474;2022-11-20T20:25:58;29.98;;;16.77;;
3099;SDS011;1560;52.746;13.474;2022-11-20T20:28:27;24.23;;;14.73;;
3099;SDS011;1560;52.746;13.474;2022-11-20T20:31:04;26.02;;;15.72;;
3099;SDS011;1560;52.746;13.474;2022-11-20T20:33:41;28.40;;;15.75;;
3099;SDS011;1560;52.746;13.474;2022-11-20T20:36:11;27.00;;;15.35;;
3099;SDS011;1560;52.746;13.474;2022-11-20T20:38:41;29.63;;;15.08;;
3099;SDS011;1560;52.746;13.474;2022-11-20T20:41:12;28.15;;;16.02;;
3099;SDS011;1560;52.746;13.474;2022-11-20T20:43:43;25.00;;;14.73;;
3099;SDS011;1560;52.746;13.474;2022-11-20T20:49:06;26.62;;;14.75;;
3099;SDS011;1560;52.746;13.474;2022-11-20T20:51:36;24.47;;;15.05;;
3099;SDS011;1560;52.746;13.474;2022-11-20T20:54:13;26.60;;;15.65;;
3099;SDS011;1560;52.746;13.474;2022-11-20T20:56:43;25.23;;;15.45;;
3099;SDS011;1560;52.746;13.474;2022-11-20T20:59:12;28.57;;;17.27;;
3099;SDS011;1560;52.746;13.474;2022-11-20T21:01:41;25.72;;;14.68;;
3099;SDS011;1560;52.746;13.474;2022-11-20T21:06:47;23.77;;;15.00;;
3099;SDS011;1560;52.746;13.474;2022-11-20T21:09:16;24.92;;;15.20;;
3099;SDS011;1560;52.746;13.474;2022-11-20T21:11:53;27.70;;;14.10;;